メインページ
METAR-TAF:

METAR-TAF

空港 :

コルカタ, インド

ネータージー・スバース・チャンドラ・ボース国際空港

緯度: 22-39N, 経度: 088-27E, 海抜: 4m

現時点の気象観測

当レポートは34分前の12:30(UTC)に作成
無風
気温 21°C
湿度 60%
気圧 1011 hPa
視程: 2500m
煙霧

METAR: VECC 241230Z 00000KT 2500 HZ NSC 21/13 Q1011 NOSIG

時間: 18:34 (13:04 UTC)

予報

当レポートは8時間4分前の05:00(UTC)に作成
予報は24日の 06時(UTC)から 25日の 12時(UTC)まで有効
北/北西の風 7kt
視程: 3500m
煙霧
24日の 12時(UTC)から 24日の 14時(UTC)まで徐々に
の風 kt
視程: 2500m
24日の 22時(UTC)から 24日の 24時(UTC)まで徐々に
の風 5kt
視程: 1400m
25日の 03時(UTC)から 25日の 05時(UTC)まで徐々に
視程: 2500m
煙霧
25日の 06時(UTC)から 25日の 08時(UTC)まで徐々に
視程: 3500m
煙霧

TAF: VECC 240500Z 2406/2512 34007KT 3500 HZ NSC BECMG 2412/2414 00000KT 2500 BR BECMG 2422/2424 35005KT 1400 BR BECMG 2503/2505 2500 HZ BECMG 2506/2508 3500 HZ

4,000以上の空港の気象観測と天気予報(METAR報とTAF報)

利用可能な観測所は地図上に黄色い丸と赤い丸で示す。

丸の上にカーソルを重ねると観測所名を参照できる。

次にクリックすると気象観測と天気予報を参照できる。

マップの切り替え:黒色「×」印の緑ボタンをクリックして拡大、「-」印の緑ボタンをクリックして縮小、緑色の三角印をクリックして隣りの地図に切り替え


METAR-TAF: